sensor_id;sensor_type;location;lat;lon;timestamp;pressure;altitude;pressure_sealevel;temperature;humidity
43281;BME280;62175;49.416;8.690;2023-01-08T00:02:00;99920.28;;;12.36;50.83
43281;BME280;62175;49.416;8.690;2023-01-08T00:04:27;99914.94;;;12.49;50.74
43281;BME280;62175;49.416;8.690;2023-01-08T00:06:54;99910.52;;;12.35;51.49
43281;BME280;62175;49.416;8.690;2023-01-08T00:09:22;99904.66;;;12.29;51.98
43281;BME280;62175;49.416;8.690;2023-01-08T00:11:49;99904.74;;;12.37;51.32
43281;BME280;62175;49.416;8.690;2023-01-08T00:14:16;99903.93;;;12.38;51.65
43281;BME280;62175;49.416;8.690;2023-01-08T00:16:43;99901.11;;;12.25;51.06
43281;BME280;62175;49.416;8.690;2023-01-08T00:19:10;99895.03;;;12.15;52.07
43281;BME280;62175;49.416;8.690;2023-01-08T00:21:37;99886.63;;;12.09;52.19
43281;BME280;62175;49.416;8.690;2023-01-08T00:24:05;99885.12;;;12.16;51.62
43281;BME280;62175;49.416;8.690;2023-01-08T00:26:32;99877.67;;;11.85;51.95
43281;BME280;62175;49.416;8.690;2023-01-08T00:28:59;99870.89;;;12.11;51.63
43281;BME280;62175;49.416;8.690;2023-01-08T00:31:26;99859.45;;;12.09;51.81
43281;BME280;62175;49.416;8.690;2023-01-08T00:33:53;99857.15;;;12.17;53.54
43281;BME280;62175;49.416;8.690;2023-01-08T00:36:21;99857.76;;;12.12;51.97
43281;BME280;62175;49.416;8.690;2023-01-08T00:38:48;99852.74;;;12.08;51.20
43281;BME280;62175;49.416;8.690;2023-01-08T00:41:16;99845.98;;;12.22;52.63
43281;BME280;62175;49.416;8.690;2023-01-08T00:43:44;99841.76;;;12.35;52.58
43281;BME280;62175;49.416;8.690;2023-01-08T00:46:14;99838.62;;;12.40;51.61
43281;BME280;62175;49.416;8.690;2023-01-08T00:48:42;99830.74;;;12.40;51.55
43281;BME280;62175;49.416;8.690;2023-01-08T00:51:09;99828.92;;;12.38;51.61
43281;BME280;62175;49.416;8.690;2023-01-08T00:53:36;99829.32;;;12.31;52.12
43281;BME280;62175;49.416;8.690;2023-01-08T00:56:05;99838.23;;;12.17;51.62
43281;BME280;62175;49.416;8.690;2023-01-08T00:58:34;99838.92;;;12.45;51.33
43281;BME280;62175;49.416;8.690;2023-01-08T01:01:01;99834.08;;;12.18;51.58
43281;BME280;62175;49.416;8.690;2023-01-08T01:03:30;99829.18;;;12.27;52.63
43281;BME280;62175;49.416;8.690;2023-01-08T01:06:00;99827.17;;;11.95;52.97
43281;BME280;62175;49.416;8.690;2023-01-08T01:08:28;99823.90;;;12.22;52.09
43281;BME280;62175;49.416;8.690;2023-01-08T01:10:56;99828.27;;;12.13;52.91
43281;BME280;62175;49.416;8.690;2023-01-08T01:13:23;99836.19;;;12.07;52.66
43281;BME280;62175;49.416;8.690;2023-01-08T01:16:00;99820.72;;;12.39;52.46
43281;BME280;62175;49.416;8.690;2023-01-08T01:18:29;99826.16;;;12.40;52.50
43281;BME280;62175;49.416;8.690;2023-01-08T01:20:57;99829.31;;;12.33;52.49
43281;BME280;62175;49.416;8.690;2023-01-08T01:23:24;99830.57;;;12.10;52.16
43281;BME280;62175;49.416;8.690;2023-01-08T01:25:51;99829.37;;;12.11;52.16
43281;BME280;62175;49.416;8.690;2023-01-08T01:28:18;99826.92;;;12.29;52.74
43281;BME280;62175;49.416;8.690;2023-01-08T01:31:36;99828.17;;;12.05;53.18
43281;BME280;62175;49.416;8.690;2023-01-08T01:34:03;99840.45;;;12.20;52.04
43281;BME280;62175;49.416;8.690;2023-01-08T01:36:31;99833.65;;;12.24;51.98
43281;BME280;62175;49.416;8.690;2023-01-08T01:38:58;99833.49;;;11.85;53.08
43281;BME280;62175;49.416;8.690;2023-01-08T01:41:27;99843.20;;;12.02;52.64
43281;BME280;62175;49.416;8.690;2023-01-08T01:43:57;99841.61;;;12.31;53.00
43281;BME280;62175;49.416;8.690;2023-01-08T01:46:34;99834.94;;;12.16;52.53
43281;BME280;62175;49.416;8.690;2023-01-08T01:49:11;99833.80;;;12.18;53.27
43281;BME280;62175;49.416;8.690;2023-01-08T01:51:46;99836.68;;;12.25;52.45
43281;BME280;62175;49.416;8.690;2023-01-08T01:54:16;99833.43;;;12.19;52.78
43281;BME280;62175;49.416;8.690;2023-01-08T01:56:44;99830.96;;;12.10;52.08
43281;BME280;62175;49.416;8.690;2023-01-08T01:59:12;99833.13;;;12.64;51.99
43281;BME280;62175;49.416;8.690;2023-01-08T02:01:41;99829.93;;;12.35;52.40
43281;BME280;62175;49.416;8.690;2023-01-08T02:04:10;99834.54;;;11.88;53.55
43281;BME280;62175;49.416;8.690;2023-01-08T02:07:08;99831.01;;;12.25;52.50
43281;BME280;62175;49.416;8.690;2023-01-08T02:09:42;99830.59;;;12.40;51.48
43281;BME280;62175;49.416;8.690;2023-01-08T02:12:53;99817.32;;;12.18;52.02
43281;BME280;62175;49.416;8.690;2023-01-08T02:16:20;99822.81;;;12.49;52.62
43281;BME280;62175;49.416;8.690;2023-01-08T02:18:54;99813.38;;;12.22;52.24
43281;BME280;62175;49.416;8.690;2023-01-08T02:21:30;99811.97;;;12.71;53.47
43281;BME280;62175;49.416;8.690;2023-01-08T02:24:07;99808.26;;;12.37;51.86
43281;BME280;62175;49.416;8.690;2023-01-08T02:27:01;99800.66;;;12.38;52.45
43281;BME280;62175;49.416;8.690;2023-01-08T02:29:31;99797.01;;;12.67;52.42
43281;BME280;62175;49.416;8.690;2023-01-08T02:31:59;99794.92;;;12.77;52.16
43281;BME280;62175;49.416;8.690;2023-01-08T02:34:26;99792.02;;;12.69;52.52
43281;BME280;62175;49.416;8.690;2023-01-08T02:36:54;99787.37;;;12.31;51.93
43281;BME280;62175;49.416;8.690;2023-01-08T02:39:33;99782.20;;;12.66;51.69
43281;BME280;62175;49.416;8.690;2023-01-08T23:03:18;98747.29;;;12.90;60.74
43281;BME280;62175;49.416;8.690;2023-01-08T23:05:47;98747.93;;;12.47;60.51
43281;BME280;62175;49.416;8.690;2023-01-08T23:08:14;98747.46;;;12.64;60.13
43281;BME280;62175;49.416;8.690;2023-01-08T23:10:42;98740.06;;;12.78;59.71
43281;BME280;62175;49.416;8.690;2023-01-08T23:13:09;98736.54;;;12.99;59.64
43281;BME280;62175;49.416;8.690;2023-01-08T23:15:36;98740.25;;;12.75;59.67
43281;BME280;62175;49.416;8.690;2023-01-08T23:18:03;98746.91;;;13.04;59.89
43281;BME280;62175;49.416;8.690;2023-01-08T23:20:30;98744.33;;;12.59;60.33
43281;BME280;62175;49.416;8.690;2023-01-08T23:22:58;98752.09;;;12.88;60.73
43281;BME280;62175;49.416;8.690;2023-01-08T23:25:25;98757.22;;;12.92;60.15
43281;BME280;62175;49.416;8.690;2023-01-08T23:27:52;98754.80;;;12.85;59.89
43281;BME280;62175;49.416;8.690;2023-01-08T23:30:19;98753.68;;;13.03;60.06
43281;BME280;62175;49.416;8.690;2023-01-08T23:32:46;98753.66;;;12.79;59.23
43281;BME280;62175;49.416;8.690;2023-01-08T23:35:13;98751.70;;;12.81;60.36
43281;BME280;62175;49.416;8.690;2023-01-08T23:37:41;98751.09;;;12.85;60.32
43281;BME280;62175;49.416;8.690;2023-01-08T23:40:10;98751.07;;;12.76;60.29
43281;BME280;62175;49.416;8.690;2023-01-08T23:42:37;98756.40;;;13.18;59.74
43281;BME280;62175;49.416;8.690;2023-01-08T23:45:06;98760.11;;;12.51;60.55
43281;BME280;62175;49.416;8.690;2023-01-08T23:47:34;98756.34;;;13.00;60.55
43281;BME280;62175;49.416;8.690;2023-01-08T23:50:01;98754.17;;;13.12;60.84
43281;BME280;62175;49.416;8.690;2023-01-08T23:52:28;98760.54;;;12.71;59.94
43281;BME280;62175;49.416;8.690;2023-01-08T23:54:55;98759.22;;;12.41;60.94
43281;BME280;62175;49.416;8.690;2023-01-08T23:57:22;98761.60;;;12.65;60.70
43281;BME280;62175;49.416;8.690;2023-01-08T23:59:50;98760.23;;;12.63;61.28
